createdAt,value
2019-05-17T00:01:37.581Z,5.90
2019-05-17T00:04:13.265Z,6.53
2019-05-17T00:06:41.102Z,7.20
2019-05-17T00:09:09.000Z,6.73
2019-05-17T00:11:36.982Z,7.33
2019-05-17T00:14:06.340Z,7.23
2019-05-17T00:16:34.320Z,7.30
2019-05-17T00:19:02.067Z,8.40
2019-05-17T00:21:30.284Z,8.37
2019-05-17T00:23:59.108Z,8.00
2019-05-17T00:26:28.552Z,8.37
2019-05-17T00:28:56.384Z,8.30
2019-05-17T00:31:26.283Z,8.40
2019-05-17T00:33:56.446Z,8.27
2019-05-17T00:36:26.771Z,7.83
2019-05-17T00:38:56.644Z,8.70
2019-05-17T00:41:26.874Z,8.77
2019-05-17T00:43:56.844Z,8.53
2019-05-17T00:46:26.654Z,8.47
2019-05-17T00:48:57.131Z,8.70
2019-05-17T00:51:27.235Z,8.90
2019-05-17T00:53:56.261Z,8.67
2019-05-17T00:56:26.471Z,8.30
2019-05-17T00:58:53.862Z,9.03
2019-05-17T01:01:21.668Z,8.90
2019-05-17T01:03:49.489Z,9.20
2019-05-17T01:06:17.194Z,8.93
2019-05-17T01:08:47.485Z,7.87
2019-05-17T01:11:16.542Z,8.93
2019-05-17T01:13:46.340Z,8.80
2019-05-17T01:16:13.820Z,8.93
2019-05-17T01:18:41.647Z,10.57
2019-05-17T01:21:09.340Z,9.60
2019-05-17T01:23:37.065Z,10.40
2019-05-17T01:26:07.322Z,10.13
2019-05-17T01:28:36.297Z,10.60
2019-05-17T01:31:06.480Z,10.07
2019-05-17T01:33:36.569Z,10.17
2019-05-17T01:36:06.786Z,10.40
2019-05-17T01:38:37.417Z,10.47
2019-05-17T01:41:06.832Z,11.07
2019-05-17T01:43:36.589Z,10.70
2019-05-17T01:46:03.999Z,11.50
2019-05-17T01:48:31.926Z,10.90
2019-05-17T01:50:59.677Z,10.17
2019-05-17T01:53:27.386Z,11.00
2019-05-17T01:55:56.787Z,11.30
2019-05-17T01:58:27.081Z,12.40
2019-05-17T02:00:57.397Z,11.80
2019-05-17T02:03:26.772Z,12.30
2019-05-17T02:05:56.620Z,12.40
2019-05-17T02:08:26.463Z,13.47
2019-05-17T02:10:54.364Z,13.10
2019-05-17T02:13:22.202Z,12.13
2019-05-17T02:15:50.161Z,13.50
2019-05-17T02:18:17.906Z,13.73
2019-05-17T02:20:46.416Z,13.80
2019-05-17T02:23:14.529Z,13.90
2019-05-17T02:25:42.259Z,14.23
2019-05-17T02:28:12.171Z,15.07
2019-05-17T02:30:43.882Z,15.73
2019-05-17T02:33:12.665Z,14.23
2019-05-17T02:35:42.896Z,14.90
2019-05-17T02:38:13.017Z,15.60
2019-05-17T02:40:42.842Z,15.50
2019-05-17T02:43:09.405Z,16.10
2019-05-17T02:45:37.279Z,17.20
2019-05-17T02:48:04.986Z,16.40
2019-05-17T02:50:36.252Z,17.03
2019-05-17T02:53:04.846Z,17.50
2019-05-17T02:55:32.761Z,17.30
2019-05-17T02:58:02.903Z,17.30
2019-05-17T03:00:33.865Z,18.80
2019-05-17T03:03:02.988Z,18.77
2019-05-17T03:05:29.616Z,17.40
2019-05-17T03:07:57.415Z,18.10
2019-05-17T03:10:29.028Z,18.43
2019-05-17T03:12:54.843Z,18.20
2019-05-17T03:15:23.559Z,18.47
2019-05-17T03:17:53.676Z,18.80
2019-05-17T03:20:23.322Z,17.77
2019-05-17T03:22:52.533Z,18.53
2019-05-17T03:25:23.617Z,19.00
2019-05-17T03:27:53.364Z,19.27
2019-05-17T03:30:25.298Z,19.37
2019-05-17T03:32:55.564Z,19.80
2019-05-17T03:35:25.724Z,19.63
2019-05-17T03:37:52.907Z,18.70
2019-05-17T03:40:43.649Z,19.13
2019-05-17T03:42:49.174Z,20.27
2019-05-17T03:45:16.911Z,19.80
2019-05-17T03:47:45.027Z,20.30
2019-05-17T03:50:13.744Z,19.30
2019-05-17T03:52:44.442Z,19.70
2019-05-17T03:55:13.124Z,21.40
2019-05-17T03:57:44.179Z,20.20
2019-05-17T04:00:15.198Z,18.33
2019-05-17T04:02:44.549Z,19.07
2019-05-17T04:05:13.028Z,20.37
2019-05-17T04:07:43.496Z,19.03
2019-05-17T04:10:14.622Z,18.87
2019-05-17T04:12:43.641Z,19.90
2019-05-17T04:15:13.459Z,20.30
2019-05-17T04:17:43.831Z,20.40
2019-05-17T04:20:13.493Z,18.40
2019-05-17T04:22:44.115Z,20.90
2019-05-17T04:25:13.417Z,18.97
2019-05-17T04:27:43.529Z,19.07
2019-05-17T04:30:12.557Z,20.20
2019-05-17T04:32:43.594Z,19.67
2019-05-17T04:35:13.020Z,20.43
2019-05-17T04:37:40.069Z,19.97
2019-05-17T04:40:08.266Z,20.40
2019-05-17T04:42:36.520Z,20.60
2019-05-17T04:45:05.072Z,19.73
2019-05-17T04:47:33.563Z,19.93
2019-05-17T04:50:03.930Z,20.53
2019-05-17T04:52:33.651Z,22.63
2019-05-17T04:55:04.165Z,20.80
2019-05-17T04:57:32.543Z,20.03
2019-05-17T05:00:03.827Z,20.07
2019-05-17T05:02:33.171Z,20.47
2019-05-17T05:05:03.349Z,22.93
2019-05-17T05:07:33.590Z,21.40
2019-05-17T05:10:02.965Z,22.57
2019-05-17T05:12:33.538Z,21.17
2019-05-17T05:15:03.583Z,20.37
2019-05-17T05:17:32.986Z,21.20
2019-05-17T05:20:02.824Z,20.87
2019-05-17T05:22:32.969Z,21.33
2019-05-17T05:25:02.143Z,20.50
2019-05-17T05:27:31.628Z,22.83
2019-05-17T05:29:59.989Z,21.30
2019-05-17T05:32:27.736Z,20.90
2019-05-17T05:34:55.641Z,21.13
2019-05-17T05:37:23.490Z,20.57
2019-05-17T05:39:54.428Z,20.40
2019-05-17T05:42:22.193Z,20.40
2019-05-17T05:44:52.258Z,20.30
2019-05-17T05:47:22.067Z,20.13
2019-05-17T05:49:51.913Z,19.00
2019-05-17T05:52:21.898Z,21.23
2019-05-17T05:54:51.924Z,20.67
2019-05-17T05:57:21.853Z,20.40
2019-05-17T05:59:51.824Z,19.90
2019-05-17T06:02:21.790Z,19.07
2019-05-17T06:04:51.686Z,19.60
2019-05-17T06:07:21.471Z,18.53
2019-05-17T06:09:51.756Z,20.67
2019-05-17T06:12:24.752Z,18.90
2019-05-17T06:14:49.408Z,19.77
2019-05-17T06:17:17.270Z,18.70
2019-05-17T06:19:44.947Z,18.63
2019-05-17T06:22:12.845Z,20.17
2019-05-17T06:24:42.698Z,20.50
2019-05-17T06:27:12.364Z,20.50
2019-05-17T06:29:41.510Z,19.70
2019-05-17T06:32:11.901Z,20.40
2019-05-17T06:34:42.058Z,20.37
2019-05-17T06:37:09.564Z,21.30
2019-05-17T06:39:37.264Z,21.13
2019-05-17T06:42:05.182Z,22.10
2019-05-17T06:44:33.581Z,20.10
2019-05-17T06:47:02.646Z,20.30
2019-05-17T06:49:31.806Z,20.40
2019-05-17T06:52:02.342Z,20.60
2019-05-17T06:54:29.963Z,19.90
2019-05-17T06:57:03.081Z,19.87
2019-05-17T06:59:30.942Z,20.27
2019-05-17T07:01:59.735Z,20.13
2019-05-17T07:04:29.894Z,19.50
2019-05-17T07:07:15.470Z,18.63
2019-05-17T07:09:44.388Z,19.93
2019-05-17T07:12:12.274Z,20.03
2019-05-17T07:14:40.180Z,20.50
2019-05-17T07:17:10.064Z,21.23
2019-05-17T07:19:40.044Z,21.90
2019-05-17T07:22:09.559Z,21.27
2019-05-17T07:24:39.712Z,20.97
2019-05-17T07:27:07.322Z,22.20
2019-05-17T07:29:35.108Z,21.23
2019-05-17T07:32:02.814Z,20.43
2019-05-17T07:34:30.935Z,21.17
2019-05-17T07:36:59.760Z,19.43
2019-05-17T07:39:29.524Z,19.60
2019-05-17T07:41:59.873Z,20.10
2019-05-17T07:44:29.515Z,21.20
2019-05-17T07:46:57.526Z,20.20
2019-05-17T07:49:25.247Z,20.30
2019-05-17T07:51:53.058Z,20.87
2019-05-17T07:54:20.894Z,22.70
2019-05-17T07:56:50.568Z,19.80
2019-05-17T07:59:19.976Z,21.43
2019-05-17T08:01:50.212Z,21.30
2019-05-17T08:04:20.490Z,19.80
2019-05-17T08:06:50.555Z,19.50
2019-05-17T08:09:20.451Z,17.83
2019-05-17T08:11:50.206Z,17.73
2019-05-17T08:14:29.362Z,18.70
2019-05-17T08:16:50.071Z,18.17
2019-05-17T08:19:17.618Z,17.30
2019-05-17T08:21:45.471Z,17.07
2019-05-17T08:24:13.262Z,15.67
2019-05-17T08:26:41.948Z,16.40
2019-05-17T08:29:10.037Z,16.40
2019-05-17T08:31:40.197Z,15.73
2019-05-17T08:34:10.211Z,15.73
2019-05-17T08:36:37.436Z,16.23
2019-05-17T08:39:06.279Z,15.57
2019-05-17T08:41:34.074Z,15.40
2019-05-17T08:44:02.156Z,15.83
2019-05-17T08:46:30.595Z,15.17
2019-05-17T08:49:00.284Z,16.30
2019-05-17T08:51:30.316Z,15.10
2019-05-17T08:54:00.026Z,14.90
2019-05-17T08:56:27.910Z,14.57
2019-05-17T08:58:55.615Z,15.80
2019-05-17T09:01:23.584Z,15.30
2019-05-17T09:03:51.530Z,14.30
2019-05-17T09:06:19.940Z,16.10
2019-05-17T09:08:49.910Z,15.10
2019-05-17T09:11:19.545Z,15.17
2019-05-17T09:13:57.220Z,13.87
2019-05-17T09:16:19.541Z,14.60
2019-05-17T09:18:47.152Z,13.60
2019-05-17T09:21:15.251Z,13.70
2019-05-17T09:23:43.477Z,14.30
2019-05-17T09:26:11.573Z,12.37
2019-05-17T09:28:39.572Z,12.00
2019-05-17T09:31:10.226Z,11.83
2019-05-17T09:33:37.650Z,11.33
2019-05-17T09:36:06.524Z,10.93
2019-05-17T09:38:34.391Z,10.93
2019-05-17T09:41:02.141Z,10.93
2019-05-17T09:43:30.052Z,11.77
2019-05-17T09:45:58.047Z,11.03
2019-05-17T09:48:25.807Z,10.37
2019-05-17T09:50:54.102Z,10.57
2019-05-17T09:53:22.677Z,9.90
2019-05-17T09:55:50.414Z,11.20
2019-05-17T09:58:21.421Z,10.77
2019-05-17T10:00:49.608Z,10.23
2019-05-17T10:03:23.265Z,10.10
2019-05-17T10:05:49.534Z,10.90
2019-05-17T10:08:19.307Z,10.30
2019-05-17T10:11:04.229Z,9.37
2019-05-17T10:13:21.445Z,10.07
2019-05-17T10:15:50.012Z,9.83
2019-05-17T10:18:20.005Z,9.50
2019-05-17T10:20:50.478Z,10.17
2019-05-17T10:23:19.679Z,9.70
2019-05-17T10:25:47.534Z,10.60
2019-05-17T10:28:15.295Z,10.13
2019-05-17T10:30:43.136Z,10.47
2019-05-17T10:33:11.390Z,9.33
2019-05-17T10:35:40.744Z,9.00
2019-05-17T10:38:10.335Z,8.60
2019-05-17T10:40:40.819Z,8.30
2019-05-17T10:43:10.041Z,8.57
2019-05-17T10:45:40.917Z,9.50
2019-05-17T10:48:10.202Z,8.77
2019-05-17T10:50:40.753Z,9.10
2019-05-17T10:53:10.055Z,9.37
2019-05-17T10:55:39.678Z,9.77
2019-05-17T10:58:10.072Z,9.77
2019-05-17T11:00:37.712Z,9.47
2019-05-17T11:03:05.945Z,10.17
2019-05-17T11:05:33.723Z,10.30
2019-05-17T11:08:03.534Z,9.47
2019-05-17T11:10:31.880Z,9.50
2019-05-17T11:12:59.748Z,10.17
2019-05-17T11:15:29.395Z,9.67
2019-05-17T11:17:57.266Z,10.77
2019-05-17T11:20:25.028Z,9.60
2019-05-17T11:22:54.554Z,10.00
2019-05-17T11:25:22.312Z,10.30
2019-05-17T11:27:52.802Z,9.90
2019-05-17T11:30:21.062Z,10.20
2019-05-17T11:32:48.837Z,10.40
2019-05-17T11:35:17.375Z,10.63
2019-05-17T11:37:46.989Z,11.30
2019-05-17T11:40:16.589Z,11.00
2019-05-17T11:42:46.431Z,11.13
2019-05-17T11:45:26.772Z,10.90
2019-05-17T11:47:45.890Z,10.37
2019-05-17T11:50:14.342Z,10.10
2019-05-17T11:52:43.653Z,11.70
2019-05-17T11:55:12.853Z,11.60
2019-05-17T11:57:40.641Z,10.83
2019-05-17T12:00:12.427Z,9.57
2019-05-17T12:02:42.197Z,11.30
2019-05-17T12:05:10.192Z,11.47
2019-05-17T12:07:38.083Z,11.30
2019-05-17T12:10:08.008Z,11.53
2019-05-17T12:12:36.222Z,11.50
2019-05-17T12:15:06.946Z,11.30
2019-05-17T12:17:34.693Z,12.30
2019-05-17T12:20:02.754Z,12.27
2019-05-17T12:22:32.560Z,12.53
2019-05-17T12:25:00.287Z,11.90
2019-05-17T12:27:29.135Z,11.07
2019-05-17T12:29:56.919Z,13.30
2019-05-17T12:32:25.243Z,11.73
2019-05-17T12:34:53.981Z,12.10
2019-05-17T12:37:23.574Z,12.10
2019-05-17T12:39:52.554Z,12.70
2019-05-17T12:42:21.596Z,12.57
2019-05-17T12:44:49.362Z,13.17
2019-05-17T12:47:17.550Z,13.07
2019-05-17T12:49:45.463Z,11.90
2019-05-17T12:52:13.391Z,12.00
2019-05-17T12:54:41.506Z,12.60
2019-05-17T12:57:09.286Z,11.43
2019-05-17T12:59:37.252Z,12.40
2019-05-17T13:02:05.254Z,11.70
2019-05-17T13:04:33.081Z,12.90
2019-05-17T13:07:01.075Z,13.23
2019-05-17T13:09:29.364Z,12.10
2019-05-17T13:11:58.938Z,12.97
2019-05-17T13:14:26.707Z,14.00
2019-05-17T13:16:54.706Z,12.70
2019-05-17T13:19:25.253Z,13.53
2019-05-17T13:21:52.238Z,14.90
2019-05-17T13:24:20.131Z,17.03
2019-05-17T13:26:47.907Z,19.03
2019-05-17T13:29:15.860Z,18.67
2019-05-17T13:31:44.032Z,17.43
2019-05-17T13:34:13.557Z,16.50
2019-05-17T13:36:41.280Z,15.43
2019-05-17T13:39:09.449Z,16.60
2019-05-17T13:41:37.592Z,15.40
2019-05-17T13:44:06.169Z,15.43
2019-05-17T13:46:34.107Z,17.63
2019-05-17T13:49:02.075Z,18.00
2019-05-17T13:51:30.746Z,16.93
2019-05-17T13:54:00.283Z,17.00
2019-05-17T13:56:28.019Z,18.17
2019-05-17T13:58:56.385Z,18.20
2019-05-17T14:01:24.455Z,19.50
2019-05-17T14:03:52.390Z,18.57
2019-05-17T14:06:20.559Z,17.80
2019-05-17T14:08:48.380Z,19.47
2019-05-17T14:11:16.276Z,18.10
2019-05-17T14:13:44.047Z,20.03
2019-05-17T14:16:12.040Z,19.20
2019-05-17T14:18:39.897Z,20.33
2019-05-17T14:21:07.967Z,20.20
2019-05-17T14:23:37.487Z,21.20
2019-05-17T14:26:05.306Z,21.20
2019-05-17T14:28:35.730Z,20.97
2019-05-17T14:31:03.680Z,22.60
2019-05-17T14:33:31.425Z,21.13
2019-05-17T14:35:59.195Z,19.13
2019-05-17T14:38:27.189Z,17.40
2019-05-17T14:41:10.417Z,17.20
2019-05-17T14:43:24.931Z,14.60
2019-05-17T14:45:53.354Z,13.70
2019-05-17T14:48:21.465Z,12.93
2019-05-17T14:50:49.827Z,13.93
2019-05-17T14:53:17.785Z,14.43
2019-05-17T14:55:47.346Z,15.33
2019-05-17T14:58:15.790Z,14.63
2019-05-17T15:00:43.577Z,13.90
2019-05-17T15:03:11.338Z,13.50
2019-05-17T15:05:39.325Z,14.07
2019-05-17T15:08:07.181Z,13.80
2019-05-17T15:10:34.900Z,12.90
2019-05-17T15:13:02.741Z,12.90
2019-05-17T15:15:30.682Z,13.93
2019-05-17T15:17:58.873Z,14.10
2019-05-17T15:20:26.742Z,14.27
2019-05-17T15:22:54.989Z,14.13
2019-05-17T15:25:23.992Z,14.77
2019-05-17T15:27:51.726Z,15.00
2019-05-17T15:30:19.579Z,14.80
2019-05-17T15:32:47.929Z,14.23
2019-05-17T15:35:15.727Z,14.00
2019-05-17T15:37:43.796Z,15.53
2019-05-17T15:40:12.027Z,15.23
2019-05-17T15:42:44.536Z,17.03
2019-05-17T15:45:10.919Z,17.70
2019-05-17T15:47:38.941Z,16.90
2019-05-17T15:50:07.492Z,16.70
2019-05-17T15:52:35.793Z,17.87
2019-05-17T15:55:05.223Z,19.87
2019-05-17T15:57:33.029Z,20.10
2019-05-17T16:00:01.284Z,23.10
2019-05-17T16:02:29.028Z,21.70
2019-05-17T16:04:58.606Z,21.73
2019-05-17T16:07:26.612Z,22.80
2019-05-17T16:09:54.343Z,24.20
2019-05-17T16:12:22.133Z,24.87
2019-05-17T16:14:51.750Z,23.33
2019-05-17T16:17:19.865Z,26.10
2019-05-17T16:19:48.223Z,27.10
2019-05-17T16:22:17.440Z,26.33
2019-05-17T16:24:45.191Z,25.73
2019-05-17T16:27:13.055Z,23.63
2019-05-17T16:29:42.755Z,22.43
2019-05-17T16:32:10.515Z,23.30
2019-05-17T16:34:38.409Z,21.07
2019-05-17T16:37:06.126Z,20.70
2019-05-17T16:39:34.355Z,19.40
2019-05-17T16:42:03.834Z,20.97
2019-05-17T16:44:31.773Z,19.90
2019-05-17T16:46:59.520Z,20.77
2019-05-17T16:49:28.560Z,20.27
2019-05-17T16:51:56.683Z,21.20
2019-05-17T16:54:24.427Z,20.90
2019-05-17T16:56:52.325Z,21.80
2019-05-17T16:59:20.692Z,21.67
2019-05-17T17:01:48.441Z,24.13
2019-05-17T17:04:16.350Z,23.80
2019-05-17T17:06:50.666Z,25.10
2019-05-17T17:09:18.536Z,24.43
2019-05-17T17:11:46.738Z,24.90
2019-05-17T17:14:14.693Z,24.53
2019-05-17T17:16:42.514Z,25.90
2019-05-17T17:19:10.661Z,26.60
2019-05-17T17:21:38.862Z,24.90
2019-05-17T17:24:06.898Z,26.20
2019-05-17T17:26:35.591Z,25.70
2019-05-17T17:29:03.921Z,24.83
2019-05-17T17:31:31.941Z,26.23
2019-05-17T17:34:00.001Z,26.83
2019-05-17T17:36:27.760Z,26.50
2019-05-17T17:38:55.491Z,27.37
2019-05-17T17:41:26.662Z,26.07
2019-05-17T17:43:58.399Z,25.30
2019-05-17T17:46:24.544Z,25.90
2019-05-17T17:48:54.233Z,26.47
2019-05-17T17:51:23.195Z,26.37
2019-05-17T17:53:50.951Z,26.37
2019-05-17T17:56:20.684Z,26.53
2019-05-17T17:58:51.059Z,27.90
2019-05-17T18:01:18.808Z,27.30
2019-05-17T18:03:47.067Z,27.10
2019-05-17T18:06:15.265Z,30.17
2019-05-17T18:08:42.973Z,29.50
2019-05-17T18:11:10.745Z,30.00
2019-05-17T18:13:38.962Z,29.20
2019-05-17T18:16:06.954Z,28.40
2019-05-17T18:18:34.690Z,29.37
2019-05-17T18:21:02.425Z,29.47
2019-05-17T18:23:30.295Z,31.37
2019-05-17T18:25:59.164Z,29.60
2019-05-17T18:28:26.930Z,27.40
2019-05-17T18:30:54.892Z,28.20
2019-05-17T18:33:22.914Z,27.30
2019-05-17T18:35:51.552Z,25.23
2019-05-17T18:38:23.286Z,23.90
2019-05-17T18:40:51.033Z,22.03
2019-05-17T18:43:18.764Z,22.60
2019-05-17T18:45:47.833Z,23.10
2019-05-17T18:48:15.709Z,22.80
2019-05-17T18:50:43.605Z,23.37
2019-05-17T18:53:16.691Z,22.70
2019-05-17T18:55:41.283Z,23.00
2019-05-17T18:58:09.694Z,22.60
2019-05-17T19:00:37.643Z,22.70
2019-05-17T19:03:05.536Z,21.80
2019-05-17T19:05:33.348Z,20.80
2019-05-17T19:08:01.097Z,23.13
2019-05-17T19:10:29.696Z,22.63
2019-05-17T19:12:57.615Z,22.60
2019-05-17T19:15:25.773Z,21.57
2019-05-17T19:17:55.352Z,21.97
2019-05-17T19:20:23.131Z,21.30
2019-05-17T19:22:51.146Z,23.10
2019-05-17T19:25:19.028Z,23.90
2019-05-17T19:27:48.104Z,21.20
2019-05-17T19:30:16.373Z,21.93
2019-05-17T19:32:44.136Z,23.30
2019-05-17T19:35:14.308Z,22.77
2019-05-17T19:37:42.052Z,21.90
2019-05-17T19:40:11.972Z,22.97
2019-05-17T19:42:39.740Z,22.50
2019-05-17T19:45:08.895Z,24.00
2019-05-17T19:47:37.176Z,21.10
2019-05-17T19:50:05.213Z,22.70
2019-05-17T19:52:33.001Z,23.00
2019-05-17T19:55:00.957Z,21.30
2019-05-17T19:57:28.842Z,21.70
2019-05-17T19:59:58.602Z,21.50
2019-05-17T20:02:26.735Z,21.67
2019-05-17T20:04:54.530Z,21.20
2019-05-17T20:07:24.233Z,22.17
2019-05-17T20:09:52.441Z,20.97
2019-05-17T20:12:20.226Z,22.20
2019-05-17T20:14:48.520Z,20.67
2019-05-17T20:17:16.485Z,22.00
2019-05-17T20:19:44.628Z,20.23
2019-05-17T20:22:12.745Z,21.30
2019-05-17T20:24:40.833Z,21.90
2019-05-17T20:27:08.594Z,21.70
2019-05-17T20:29:36.574Z,21.00
2019-05-17T20:32:04.427Z,22.10
2019-05-17T20:34:32.290Z,22.00
2019-05-17T20:37:00.017Z,22.47
2019-05-17T20:39:27.943Z,21.87
2019-05-17T20:41:57.531Z,21.57
2019-05-17T20:44:25.654Z,21.73
2019-05-17T20:46:53.599Z,21.87
2019-05-17T20:49:21.360Z,21.77
2019-05-17T20:51:51.009Z,22.00
2019-05-17T20:54:19.306Z,21.23
2019-05-17T20:56:49.039Z,22.20
2019-05-17T20:59:17.017Z,20.67
2019-05-17T21:01:45.261Z,22.33
2019-05-17T21:04:14.374Z,21.20
2019-05-17T21:06:42.107Z,22.00
2019-05-17T21:09:10.271Z,20.40
2019-05-17T21:11:38.218Z,19.07
2019-05-17T21:14:05.970Z,21.77
2019-05-17T21:16:33.837Z,21.90
2019-05-17T21:19:01.853Z,22.07
2019-05-17T21:21:29.700Z,21.40
2019-05-17T21:24:01.976Z,21.87
2019-05-17T21:26:33.118Z,22.70
2019-05-17T21:29:00.984Z,23.10
2019-05-17T21:31:28.902Z,23.87
2019-05-17T21:33:56.642Z,22.67
2019-05-17T21:36:24.368Z,21.90
2019-05-17T21:38:52.342Z,23.47
2019-05-17T21:41:20.078Z,23.83
2019-05-17T21:43:49.710Z,23.77
2019-05-17T21:46:19.404Z,23.30
2019-05-17T21:48:47.217Z,22.30
2019-05-17T21:51:15.090Z,24.30
2019-05-17T21:53:43.570Z,22.67
2019-05-17T21:56:13.082Z,22.80
2019-05-17T21:58:41.020Z,24.97
2019-05-17T22:01:13.797Z,23.70
2019-05-17T22:03:41.860Z,23.00
2019-05-17T22:06:11.022Z,24.10
2019-05-17T22:08:38.736Z,23.70
2019-05-17T22:11:06.603Z,22.83
2019-05-17T22:13:35.987Z,23.47
2019-05-17T22:16:18.498Z,23.10
2019-05-17T22:18:33.930Z,21.40
2019-05-17T22:21:02.092Z,23.73
2019-05-17T22:23:29.835Z,23.20
2019-05-17T22:25:58.124Z,25.30
2019-05-17T22:28:26.905Z,25.50
2019-05-17T22:30:55.545Z,25.73
2019-05-17T22:33:23.288Z,27.30
2019-05-17T22:35:51.049Z,26.23
2019-05-17T22:38:18.924Z,27.10
2019-05-17T22:40:47.730Z,27.77
2019-05-17T22:43:18.294Z,28.87
2019-05-17T22:45:46.222Z,28.67
2019-05-17T22:48:16.153Z,27.23
2019-05-17T22:50:45.133Z,26.60
2019-05-17T22:53:12.966Z,30.00
2019-05-17T22:55:40.785Z,29.10
2019-05-17T22:58:08.747Z,26.30
2019-05-17T23:00:36.463Z,29.37
2019-05-17T23:03:04.427Z,27.07
2019-05-17T23:05:33.143Z,28.00
2019-05-17T23:08:02.609Z,26.77
2019-05-17T23:10:35.002Z,26.90
2019-05-17T23:13:01.507Z,31.33
2019-05-17T23:15:32.339Z,30.20
2019-05-17T23:18:00.249Z,27.47
2019-05-17T23:20:28.299Z,29.93
2019-05-17T23:22:56.080Z,29.47
2019-05-17T23:25:23.801Z,29.20
2019-05-17T23:27:51.922Z,31.40
2019-05-17T23:30:19.624Z,31.40
2019-05-17T23:32:49.140Z,33.10
2019-05-17T23:35:17.092Z,30.23
2019-05-17T23:37:44.925Z,33.60
2019-05-17T23:40:13.545Z,32.70
2019-05-17T23:42:41.254Z,32.77
2019-05-17T23:45:09.785Z,30.63
2019-05-17T23:47:37.514Z,30.50
2019-05-17T23:50:05.794Z,30.20
2019-05-17T23:52:33.872Z,31.57
2019-05-17T23:55:04.430Z,34.07
2019-05-17T23:57:32.178Z,33.97
